Time;durP1;ratioP1;P1;durP2;ratioP2;P2;SDS_P1;SDS_P2;PMS_P1;PMS_P2;Temp;Humidity;BMP_temperature;BMP_pressure;BME280_temperature;BME280_humidity;BME280_pressure;Samples;Min_cycle;Max_cycle;Signal;HPM_P1;HPM_P2
2022/07/13 00:01:18;;;;;;;1.15;1.00;;;;;;;;;;4941753;29;20090;-83
2022/07/13 00:03:43;;;;;;;2.42;1.20;;;;;;;;;;4941824;29;20046;-82
2022/07/13 00:06:09;;;;;;;1.58;1.00;;;;;;;;;;4939798;29;20028;-82
2022/07/13 00:08:35;;;;;;;1.08;0.98;;;;;;;;;;4941016;29;20497;-82
2022/07/13 00:11:00;;;;;;;1.30;1.10;;;;;;;;;;4941492;29;20040;-83
2022/07/13 00:13:26;;;;;;;2.60;1.10;;;;;;;;;;4940504;29;20032;-82
2022/07/13 00:15:51;;;;;;;2.05;1.00;;;;;;;;;;4941161;29;20066;-83
2022/07/13 00:18:17;;;;;;;1.75;1.00;;;;;;;;;;4940913;29;20066;-82
2022/07/13 00:20:45;;;;;;;1.70;1.13;;;;;;;;;;4940513;29;20039;-82
2022/07/13 00:23:10;;;;;;;2.35;1.05;;;;;;;;;;4941950;29;20042;-82
2022/07/13 00:25:36;;;;;;;1.75;1.20;;;;;;;;;;4941342;29;20545;-81
2022/07/13 00:28:02;;;;;;;1.75;1.30;;;;;;;;;;4941313;29;20039;-82
2022/07/13 00:30:27;;;;;;;2.08;1.20;;;;;;;;;;4941861;29;20080;-82
2022/07/13 00:32:53;;;;;;;1.10;1.00;;;;;;;;;;4941015;29;20043;-82
2022/07/13 00:35:18;;;;;;;2.47;1.33;;;;;;;;;;4923862;29;20039;-82
2022/07/13 00:37:44;;;;;;;1.10;1.00;;;;;;;;;;4940722;29;20153;-81
2022/07/13 00:40:10;;;;;;;1.27;1.02;;;;;;;;;;4956210;29;20042;-82
2022/07/13 00:42:35;;;;;;;5.38;1.13;;;;;;;;;;4940660;29;20555;-82
2022/07/13 00:45:01;;;;;;;2.53;1.13;;;;;;;;;;4939799;29;20040;-83
2022/07/13 00:47:32;;;;;;;3.17;1.10;;;;;;;;;;4940495;29;20027;-83
2022/07/13 00:50:07;;;;;;;2.15;1.10;;;;;;;;;;4939459;29;20122;-82
2022/07/13 00:52:35;;;;;;;1.30;1.17;;;;;;;;;;4939887;29;20043;-82
2022/07/13 00:55:02;;;;;;;1.80;1.25;;;;;;;;;;4940389;29;20027;-83
2022/07/13 00:57:28;;;;;;;1.70;1.25;;;;;;;;;;4939051;29;20036;-82
2022/07/13 00:59:54;;;;;;;1.40;1.20;;;;;;;;;;4940287;29;20035;-83
2022/07/13 01:02:20;;;;;;;1.98;1.20;;;;;;;;;;4922890;29;20044;-83
2022/07/13 01:04:46;;;;;;;1.52;1.10;;;;;;;;;;4941267;29;20042;-82
2022/07/13 01:07:12;;;;;;;2.67;1.10;;;;;;;;;;4939310;29;20530;-82
2022/07/13 01:09:38;;;;;;;3.35;1.20;;;;;;;;;;4940421;29;20087;-82
2022/07/13 01:12:05;;;;;;;1.50;1.10;;;;;;;;;;4939315;29;20070;-82
2022/07/13 01:14:31;;;;;;;1.20;1.00;;;;;;;;;;4940454;29;20039;-83
2022/07/13 01:16:58;;;;;;;2.35;1.20;;;;;;;;;;4923971;29;20040;-82
2022/07/13 01:19:24;;;;;;;2.25;1.23;;;;;;;;;;4940765;29;20043;-83
2022/07/13 01:21:55;;;;;;;3.33;1.13;;;;;;;;;;4940105;29;20035;-82
2022/07/13 01:24:21;;;;;;;2.50;1.27;;;;;;;;;;4940698;29;20165;-83
2022/07/13 01:26:48;;;;;;;1.15;1.05;;;;;;;;;;4939093;29;20019;-83
2022/07/13 01:29:14;;;;;;;2.20;1.30;;;;;;;;;;4940352;29;20031;-83
2022/07/13 01:31:41;;;;;;;2.05;1.23;;;;;;;;;;4939919;29;20036;-83
2022/07/13 01:34:07;;;;;;;1.60;1.25;;;;;;;;;;4937396;29;20134;-83
2022/07/13 01:36:38;;;;;;;2.75;1.20;;;;;;;;;;4938464;29;20042;-82
2022/07/13 01:39:06;;;;;;;1.48;1.10;;;;;;;;;;4938618;29;20123;-83
2022/07/13 01:41:32;;;;;;;1.75;1.10;;;;;;;;;;4939620;29;20477;-83
2022/07/13 01:43:58;;;;;;;2.17;1.30;;;;;;;;;;4939392;29;20046;-81
2022/07/13 01:46:28;;;;;;;5.20;1.20;;;;;;;;;;4938647;29;20035;-82
2022/07/13 01:48:57;;;;;;;3.25;1.20;;;;;;;;;;4938639;29;20039;-83
2022/07/13 01:51:22;;;;;;;1.23;1.10;;;;;;;;;;4940270;29;20040;-84
2022/07/13 01:53:49;;;;;;;1.42;1.00;;;;;;;;;;4937919;29;20071;-84
2022/07/13 01:56:14;;;;;;;1.30;1.10;;;;;;;;;;4938176;29;20039;-83
2022/07/13 01:58:40;;;;;;;1.67;1.30;;;;;;;;;;4938803;29;20068;-83
2022/07/13 02:01:06;;;;;;;1.95;1.15;;;;;;;;;;4922417;29;20039;-84
2022/07/13 02:03:33;;;;;;;1.50;1.10;;;;;;;;;;4938814;29;20062;-83
2022/07/13 02:05:59;;;;;;;2.40;1.30;;;;;;;;;;4939044;29;20016;-83
2022/07/13 02:08:26;;;;;;;1.35;1.20;;;;;;;;;;4938207;29;20126;-83
2022/07/13 02:10:53;;;;;;;1.38;0.95;;;;;;;;;;4937440;29;20103;-82
2022/07/13 02:13:21;;;;;;;1.77;1.20;;;;;;;;;;4937276;29;20493;-82
2022/07/13 02:15:47;;;;;;;2.05;1.20;;;;;;;;;;4953236;29;20457;-82
2022/07/13 02:18:13;;;;;;;2.53;1.10;;;;;;;;;;4939169;29;20047;-82
2022/07/13 02:20:38;;;;;;;1.60;1.10;;;;;;;;;;4941637;29;20067;-83
2022/07/13 02:23:05;;;;;;;1.40;1.20;;;;;;;;;;4942924;29;20439;-83
2022/07/13 02:25:32;;;;;;;1.20;1.10;;;;;;;;;;4942971;29;20152;-83
2022/07/13 02:27:58;;;;;;;2.10;1.20;;;;;;;;;;4941731;29;20064;-83
2022/07/13 02:30:23;;;;;;;1.95;1.20;;;;;;;;;;4941223;29;20389;-82
2022/07/13 02:32:50;;;;;;;1.85;1.10;;;;;;;;;;4941760;29;20140;-82
2022/07/13 02:35:16;;;;;;;2.30;1.20;;;;;;;;;;4940866;29;20055;-82
2022/07/13 02:37:42;;;;;;;2.28;1.27;;;;;;;;;;4940760;29;20114;-82
2022/07/13 02:40:10;;;;;;;1.70;1.25;;;;;;;;;;4940919;29;20039;-82
2022/07/13 02:42:36;;;;;;;2.75;1.20;;;;;;;;;;4942297;29;20032;-82
2022/07/13 02:45:03;;;;;;;1.95;1.20;;;;;;;;;;4941020;29;20043;-82
2022/07/13 02:47:31;;;;;;;1.73;1.25;;;;;;;;;;4940458;29;20087;-84
2022/07/13 02:49:58;;;;;;;1.80;1.30;;;;;;;;;;4940354;29;20036;-84
2022/07/13 02:52:24;;;;;;;4.28;1.50;;;;;;;;;;4941100;29;20049;-82
2022/07/13 02:54:50;;;;;;;1.13;1.00;;;;;;;;;;4924411;29;20032;-84
2022/07/13 02:57:15;;;;;;;1.20;1.08;;;;;;;;;;4940532;29;20576;-84
2022/07/13 02:59:44;;;;;;;1.10;1.00;;;;;;;;;;4940841;29;20046;-83
2022/07/13 03:02:09;;;;;;;1.40;1.17;;;;;;;;;;4941600;29;20036;-83
2022/07/13 03:04:36;;;;;;;1.30;1.13;;;;;;;;;;4940729;29;20501;-83
2022/07/13 03:07:02;;;;;;;1.20;1.10;;;;;;;;;;4939578;29;20034;-83
2022/07/13 03:09:30;;;;;;;1.20;1.10;;;;;;;;;;4940545;29;20036;-82
2022/07/13 03:11:55;;;;;;;3.63;1.20;;;;;;;;;;4940603;29;20047;-83
2022/07/13 03:14:21;;;;;;;3.00;1.00;;;;;;;;;;4940608;29;20036;-82
2022/07/13 03:16:46;;;;;;;2.85;1.17;;;;;;;;;;4940665;29;20473;-83
2022/07/13 03:19:12;;;;;;;2.15;1.10;;;;;;;;;;4940517;29;20405;-83
2022/07/13 03:21:37;;;;;;;1.33;1.05;;;;;;;;;;4940647;29;20034;-83
2022/07/13 03:24:03;;;;;;;2.53;1.35;;;;;;;;;;4939276;29;20039;-83
2022/07/13 03:26:29;;;;;;;1.55;1.40;;;;;;;;;;4956747;29;20032;-83
2022/07/13 03:28:55;;;;;;;3.40;1.95;;;;;;;;;;4940655;29;20525;-83
2022/07/13 03:31:20;;;;;;;3.00;1.20;;;;;;;;;;4940409;29;20031;-82
2022/07/13 03:33:46;;;;;;;1.30;1.20;;;;;;;;;;4923998;29;20063;-82
2022/07/13 03:36:13;;;;;;;1.40;1.10;;;;;;;;;;4940126;29;20032;-83
2022/07/13 03:38:39;;;;;;;6.20;1.20;;;;;;;;;;4940221;29;20094;-82
2022/07/13 03:41:05;;;;;;;1.60;1.30;;;;;;;;;;4940913;29;20045;-83
2022/07/13 03:43:31;;;;;;;3.60;1.23;;;;;;;;;;4940818;29;20040;-83
2022/07/13 03:45:57;;;;;;;1.63;1.15;;;;;;;;;;4940263;29;20035;-82
2022/07/13 03:48:23;;;;;;;2.10;1.30;;;;;;;;;;4940809;29;20063;-83
2022/07/13 03:50:49;;;;;;;2.72;1.17;;;;;;;;;;4955466;29;20031;-82
2022/07/13 03:53:15;;;;;;;5.28;1.20;;;;;;;;;;4924269;29;20079;-81
2022/07/13 03:55:42;;;;;;;1.55;1.20;;;;;;;;;;4939933;29;20031;-82
2022/07/13 03:58:10;;;;;;;2.38;1.30;;;;;;;;;;4939027;29;20045;-83
2022/07/13 04:00:36;;;;;;;2.30;1.20;;;;;;;;;;4939759;29;20567;-82
2022/07/13 04:03:02;;;;;;;3.60;1.40;;;;;;;;;;4939333;29;20035;-83
2022/07/13 04:05:29;;;;;;;2.15;1.20;;;;;;;;;;4939024;29;20039;-82
2022/07/13 04:07:54;;;;;;;1.33;1.23;;;;;;;;;;4939031;29;20032;-83
2022/07/13 04:10:21;;;;;;;1.30;1.20;;;;;;;;;;4939393;29;20035;-82
2022/07/13 04:12:49;;;;;;;2.53;1.27;;;;;;;;;;4939954;29;20036;-82
2022/07/13 04:15:15;;;;;;;2.50;1.30;;;;;;;;;;4939553;29;20144;-83
2022/07/13 04:17:43;;;;;;;3.42;1.40;;;;;;;;;;4939295;29;20043;-82
2022/07/13 04:20:11;;;;;;;1.90;1.30;;;;;;;;;;4924136;29;20039;-82
2022/07/13 04:22:38;;;;;;;3.75;1.30;;;;;;;;;;4940396;29;20099;-83
2022/07/13 04:25:05;;;;;;;1.60;1.20;;;;;;;;;;4939828;29;20035;-82
2022/07/13 04:27:31;;;;;;;3.17;1.30;;;;;;;;;;4940983;29;20453;-82
2022/07/13 04:29:58;;;;;;;3.95;1.35;;;;;;;;;;4939562;29;20043;-83
2022/07/13 04:32:23;;;;;;;1.67;1.27;;;;;;;;;;4939626;29;20027;-82
2022/07/13 04:34:49;;;;;;;4.18;1.35;;;;;;;;;;4938648;29;20035;-82
2022/07/13 04:37:15;;;;;;;1.27;1.17;;;;;;;;;;4938542;29;20035;-82
2022/07/13 04:39:42;;;;;;;3.92;1.40;;;;;;;;;;4939190;29;20031;-83
2022/07/13 04:42:08;;;;;;;1.75;1.30;;;;;;;;;;4922759;29;20038;-82
2022/07/13 04:44:34;;;;;;;3.20;1.20;;;;;;;;;;4939359;29;20095;-82
2022/07/13 04:46:59;;;;;;;2.25;1.20;;;;;;;;;;4939461;29;20032;-82
2022/07/13 04:49:25;;;;;;;3.80;1.10;;;;;;;;;;4939775;29;20036;-82
2022/07/13 04:51:53;;;;;;;1.70;1.20;;;;;;;;;;4940815;29;20511;-83
2022/07/13 04:54:20;;;;;;;1.33;1.20;;;;;;;;;;4940982;29;20058;-83
2022/07/13 04:56:47;;;;;;;2.33;1.33;;;;;;;;;;4942757;29;20032;-82
2022/07/13 04:59:12;;;;;;;2.03;1.27;;;;;;;;;;4941106;29;20038;-83
2022/07/13 05:01:38;;;;;;;1.45;1.15;;;;;;;;;;4940830;29;20111;-83
2022/07/13 05:04:05;;;;;;;2.17;1.23;;;;;;;;;;4940079;29;20413;-83
2022/07/13 05:06:30;;;;;;;2.10;1.30;;;;;;;;;;4941456;29;20036;-82
2022/07/13 05:08:57;;;;;;;2.40;1.30;;;;;;;;;;4941622;29;20118;-82
2022/07/13 05:11:24;;;;;;;3.50;1.20;;;;;;;;;;4940169;29;20031;-82
2022/07/13 05:13:50;;;;;;;3.90;1.40;;;;;;;;;;4956377;29;20035;-82
2022/07/13 05:16:16;;;;;;;2.00;1.60;;;;;;;;;;4940424;29;20036;-82
2022/07/13 05:18:41;;;;;;;2.40;1.30;;;;;;;;;;4941575;29;20179;-82
2022/07/13 05:21:12;;;;;;;2.20;1.30;;;;;;;;;;4941795;29;20036;-83
2022/07/13 05:23:38;;;;;;;1.83;1.20;;;;;;;;;;4941403;29;20131;-82
2022/07/13 05:26:05;;;;;;;2.60;1.35;;;;;;;;;;4924548;29;20157;-83
2022/07/13 05:28:31;;;;;;;2.25;1.60;;;;;;;;;;4938888;29;20039;-82
2022/07/13 05:30:57;;;;;;;2.80;1.33;;;;;;;;;;4939857;29;20103;-81
2022/07/13 05:33:23;;;;;;;3.83;1.20;;;;;;;;;;4937843;29;20043;-83
2022/07/13 05:35:50;;;;;;;2.83;1.20;;;;;;;;;;4936326;29;20028;-83
2022/07/13 05:38:16;;;;;;;4.80;1.30;;;;;;;;;;4936518;29;20493;-83
2022/07/13 05:40:42;;;;;;;2.90;1.52;;;;;;;;;;4936483;29;20036;-83
2022/07/13 05:43:08;;;;;;;5.03;1.10;;;;;;;;;;4937734;29;20612;-83
2022/07/13 05:45:34;;;;;;;3.10;1.10;;;;;;;;;;4937325;29;20175;-82
2022/07/13 05:47:59;;;;;;;2.33;1.15;;;;;;;;;;4935748;29;20126;-83
2022/07/13 05:50:25;;;;;;;1.20;1.10;;;;;;;;;;4937102;29;20042;-83
2022/07/13 05:52:51;;;;;;;2.85;1.20;;;;;;;;;;4936934;29;20046;-83
2022/07/13 05:55:20;;;;;;;1.95;1.02;;;;;;;;;;4940632;29;20032;-86
2022/07/13 05:57:46;;;;;;;2.42;0.90;;;;;;;;;;4943777;29;20046;-83
2022/07/13 06:00:13;;;;;;;3.63;1.10;;;;;;;;;;4945452;29;20023;-82
2022/07/13 06:02:40;;;;;;;2.13;1.00;;;;;;;;;;4943512;29;20457;-84
2022/07/13 06:05:06;;;;;;;1.77;1.00;;;;;;;;;;4942194;29;20055;-85
2022/07/13 06:07:32;;;;;;;3.13;1.10;;;;;;;;;;4941780;29;20054;-84
2022/07/13 06:10:01;;;;;;;2.40;1.20;;;;;;;;;;4941509;29;20126;-83
2022/07/13 06:12:27;;;;;;;5.13;1.20;;;;;;;;;;4941289;29;20051;-82
2022/07/13 06:14:53;;;;;;;1.52;1.00;;;;;;;;;;4941367;29;20039;-85
2022/07/13 06:17:19;;;;;;;1.23;1.10;;;;;;;;;;4941382;29;20043;-83
2022/07/13 06:19:45;;;;;;;1.75;0.90;;;;;;;;;;4941314;29;20032;-83
2022/07/13 06:22:11;;;;;;;2.80;1.00;;;;;;;;;;4941281;29;20044;-86
2022/07/13 06:24:36;;;;;;;1.20;1.00;;;;;;;;;;4940470;29;20043;-85
2022/07/13 06:27:02;;;;;;;2.00;1.00;;;;;;;;;;4941462;29;20027;-84
2022/07/13 06:29:27;;;;;;;2.15;1.05;;;;;;;;;;4940879;29;20039;-85
2022/07/13 06:31:53;;;;;;;0.93;0.90;;;;;;;;;;4956552;29;20035;-85
2022/07/13 06:34:18;;;;;;;1.48;1.00;;;;;;;;;;4941351;29;20067;-85
2022/07/13 06:36:44;;;;;;;1.58;1.00;;;;;;;;;;4941767;29;20409;-85
2022/07/13 06:39:10;;;;;;;1.83;1.00;;;;;;;;;;4941790;29;20050;-84
2022/07/13 06:41:35;;;;;;;1.63;1.00;;;;;;;;;;4940599;29;20043;-84
2022/07/13 06:44:01;;;;;;;1.55;1.00;;;;;;;;;;4940478;29;20126;-84
2022/07/13 06:46:27;;;;;;;1.10;1.00;;;;;;;;;;4942442;28;20023;-84
2022/07/13 06:48:53;;;;;;;3.22;1.10;;;;;;;;;;4961960;28;20042;-86
2022/07/13 06:51:18;;;;;;;1.23;1.00;;;;;;;;;;4963910;29;20035;-84
2022/07/13 06:53:44;;;;;;;4.00;0.88;;;;;;;;;;4963748;28;20039;-84
2022/07/13 06:56:09;;;;;;;2.40;1.00;;;;;;;;;;4962772;29;20046;-83
2022/07/13 06:58:35;;;;;;;2.90;1.20;;;;;;;;;;4961697;28;20130;-84
2022/07/13 07:01:00;;;;;;;1.60;0.90;;;;;;;;;;4960747;29;20647;-84
2022/07/13 07:03:26;;;;;;;5.70;0.93;;;;;;;;;;4960759;28;20039;-82
2022/07/13 07:05:51;;;;;;;1.23;0.98;;;;;;;;;;4961091;28;20489;-83
2022/07/13 07:08:17;;;;;;;1.05;0.90;;;;;;;;;;4959140;28;20046;-84
2022/07/13 07:10:43;;;;;;;2.63;0.93;;;;;;;;;;4975313;28;20035;-85
2022/07/13 07:13:09;;;;;;;3.20;1.10;;;;;;;;;;4960834;28;20240;-84
2022/07/13 07:15:35;;;;;;;1.30;1.00;;;;;;;;;;4959461;28;20522;-85
2022/07/13 07:18:01;;;;;;;2.00;1.00;;;;;;;;;;4959244;28;20058;-84
2022/07/13 07:20:26;;;;;;;1.50;0.90;;;;;;;;;;4959546;29;20121;-85
2022/07/13 07:22:52;;;;;;;2.35;0.90;;;;;;;;;;4959960;28;20416;-84
2022/07/13 07:25:18;;;;;;;1.15;1.00;;;;;;;;;;4958903;28;20039;-84
2022/07/13 07:27:43;;;;;;;5.53;1.00;;;;;;;;;;4960917;28;20039;-84
2022/07/13 07:30:10;;;;;;;1.63;1.10;;;;;;;;;;4941969;29;20031;-84
2022/07/13 07:32:36;;;;;;;0.90;0.80;;;;;;;;;;4957650;29;20516;-84
2022/07/13 07:35:02;;;;;;;1.75;0.90;;;;;;;;;;4959259;29;20039;-85
2022/07/13 07:37:27;;;;;;;1.17;0.90;;;;;;;;;;4958626;28;20102;-83
2022/07/13 07:39:53;;;;;;;1.55;0.90;;;;;;;;;;4959109;28;20401;-85
2022/07/13 07:42:19;;;;;;;1.00;0.80;;;;;;;;;;4958560;28;20070;-84
2022/07/13 07:44:44;;;;;;;2.33;0.90;;;;;;;;;;4958634;28;20043;-85
2022/07/13 07:47:10;;;;;;;2.92;1.00;;;;;;;;;;4957159;28;20035;-84
2022/07/13 07:49:36;;;;;;;2.67;0.90;;;;;;;;;;4958027;29;20047;-84
2022/07/13 07:52:01;;;;;;;2.05;1.00;;;;;;;;;;4973395;28;20062;-84
2022/07/13 07:54:27;;;;;;;2.45;0.95;;;;;;;;;;4956199;29;20133;-84
2022/07/13 07:56:53;;;;;;;1.38;1.00;;;;;;;;;;4958231;28;20023;-85
2022/07/13 07:59:18;;;;;;;2.65;1.00;;;;;;;;;;4956970;29;20110;-84
2022/07/13 08:01:44;;;;;;;1.10;0.90;;;;;;;;;;4958764;28;20035;-85
2022/07/13 08:04:10;;;;;;;4.25;0.98;;;;;;;;;;4959432;28;20039;-83
2022/07/13 08:06:36;;;;;;;1.63;1.10;;;;;;;;;;4959292;28;20030;-83
2022/07/13 08:09:03;;;;;;;1.88;0.90;;;;;;;;;;4961286;28;20389;-83
2022/07/13 08:11:28;;;;;;;1.65;1.00;;;;;;;;;;4960069;28;20575;-83
2022/07/13 08:13:54;;;;;;;3.70;1.00;;;;;;;;;;4960427;28;20145;-85
2022/07/13 08:16:19;;;;;;;1.40;1.00;;;;;;;;;;4959165;28;20078;-85
2022/07/13 08:18:46;;;;;;;2.60;0.90;;;;;;;;;;4963736;28;20034;-83
2022/07/13 08:21:12;;;;;;;1.77;0.93;;;;;;;;;;4960997;28;20027;-85
2022/07/13 08:23:54;;;;;;;2.03;0.85;;;;;;;;;;4962037;28;20110;-84
2022/07/13 08:26:25;;;;;;;2.37;0.90;;;;;;;;;;4962185;28;20091;-84
2022/07/13 08:28:54;;;;;;;1.15;0.77;;;;;;;;;;4961259;29;20049;-85
2022/07/13 08:31:22;;;;;;;2.67;1.08;;;;;;;;;;4962583;28;20055;-85
2022/07/13 08:39:17;;;;;;;1.80;0.90;;;;;;;;;;4961489;29;20039;-85
2022/07/13 08:41:43;;;;;;;1.27;0.98;;;;;;;;;;4961784;29;20085;-85
2022/07/13 08:44:08;;;;;;;3.78;0.90;;;;;;;;;;4960576;29;20519;-85
2022/07/13 08:46:34;;;;;;;0.65;0.65;;;;;;;;;;4962757;28;20459;-85
2022/07/13 08:49:01;;;;;;;0.80;0.80;;;;;;;;;;4962564;28;20066;-85
2022/07/13 08:51:26;;;;;;;1.75;0.80;;;;;;;;;;4945609;29;20415;-85
2022/07/13 08:53:56;;;;;;;1.20;0.80;;;;;;;;;;4962177;28;20519;-84
2022/07/13 08:56:22;;;;;;;2.05;0.80;;;;;;;;;;4961374;28;20035;-85
2022/07/13 08:58:48;;;;;;;2.40;0.80;;;;;;;;;;4962218;28;20685;-84
2022/07/13 09:01:14;;;;;;;1.40;1.00;;;;;;;;;;4962161;29;20039;-84
2022/07/13 09:03:40;;;;;;;2.28;0.90;;;;;;;;;;4960456;29;20043;-84
2022/07/13 09:06:06;;;;;;;1.95;0.95;;;;;;;;;;4963105;28;20095;-85
2022/07/13 09:08:42;;;;;;;3.58;1.00;;;;;;;;;;4961384;28;20066;-84
2022/07/13 09:11:08;;;;;;;2.83;0.80;;;;;;;;;;4962253;28;20035;-84
2022/07/13 09:13:42;;;;;;;5.40;1.10;;;;;;;;;;4962469;28;20135;-84
2022/07/13 09:16:19;;;;;;;1.90;0.80;;;;;;;;;;4961347;29;20031;-85
2022/07/13 09:18:47;;;;;;;1.08;0.80;;;;;;;;;;4977526;28;20046;-84
2022/07/13 09:21:13;;;;;;;0.70;0.70;;;;;;;;;;4961842;28;20412;-85
2022/07/13 09:23:39;;;;;;;0.70;0.60;;;;;;;;;;4962731;28;20027;-85
2022/07/13 09:26:05;;;;;;;0.95;0.60;;;;;;;;;;4962648;28;20023;-84
2022/07/13 09:28:43;;;;;;;1.80;0.65;;;;;;;;;;4962797;28;20042;-84
2022/07/13 09:31:08;;;;;;;1.27;0.80;;;;;;;;;;4962973;28;20139;-85
2022/07/13 09:33:36;;;;;;;1.20;0.70;;;;;;;;;;4962695;28;20092;-85
2022/07/13 09:36:16;;;;;;;1.00;0.77;;;;;;;;;;4945261;29;20043;-84
2022/07/13 09:38:43;;;;;;;5.85;1.13;;;;;;;;;;4963129;28;20110;-85
2022/07/13 09:41:18;;;;;;;1.75;0.73;;;;;;;;;;4962258;29;20484;-84
2022/07/13 09:46:58;;;;;;;2.40;0.90;;;;;;;;;;4962397;28;20093;-85
2022/07/13 09:49:39;;;;;;;3.58;0.82;;;;;;;;;;4962761;28;20500;-84
2022/07/13 09:52:06;;;;;;;1.23;0.75;;;;;;;;;;4960850;29;20528;-84
2022/07/13 09:54:34;;;;;;;1.63;0.80;;;;;;;;;;4962964;28;20055;-84
2022/07/13 09:57:02;;;;;;;1.02;0.80;;;;;;;;;;4961744;28;20035;-82
2022/07/13 09:59:31;;;;;;;0.70;0.70;;;;;;;;;;4961131;29;20035;-84
2022/07/13 10:01:57;;;;;;;0.70;0.70;;;;;;;;;;4961721;28;20404;-82
2022/07/13 10:04:23;;;;;;;2.50;0.80;;;;;;;;;;4961361;28;20069;-83
2022/07/13 10:06:50;;;;;;;1.15;0.73;;;;;;;;;;4975882;28;20097;-83
2022/07/13 10:09:22;;;;;;;1.23;0.80;;;;;;;;;;4974244;28;20046;-84
2022/07/13 10:11:48;;;;;;;1.63;1.00;;;;;;;;;;4960283;28;20500;-84
2022/07/13 10:14:17;;;;;;;2.90;1.17;;;;;;;;;;4958472;29;20032;-84
2022/07/13 10:16:44;;;;;;;0.60;0.60;;;;;;;;;;4943245;29;20094;-84
2022/07/13 10:19:14;;;;;;;1.55;0.90;;;;;;;;;;4960927;29;20054;-87
2022/07/13 10:21:39;;;;;;;3.65;0.90;;;;;;;;;;4960475;28;20027;-85
2022/07/13 10:24:17;;;;;;;0.93;0.80;;;;;;;;;;4960175;29;20041;-83
2022/07/13 10:26:46;;;;;;;0.80;0.80;;;;;;;;;;4960888;28;20041;-83
2022/07/13 10:29:11;;;;;;;0.75;0.70;;;;;;;;;;4963159;28;20039;-84
2022/07/13 10:31:40;;;;;;;1.25;0.70;;;;;;;;;;4978997;28;20089;-84
2022/07/13 10:34:07;;;;;;;1.50;0.80;;;;;;;;;;4964940;28;20058;-84
2022/07/13 10:36:56;;;;;;;1.08;0.82;;;;;;;;;;4979192;28;20032;-83
2022/07/13 10:39:25;;;;;;;4.88;0.70;;;;;;;;;;4965604;28;20043;-84
2022/07/13 10:42:18;;;;;;;1.25;0.80;;;;;;;;;;4966255;29;20030;-83
2022/07/13 10:44:43;;;;;;;3.90;0.80;;;;;;;;;;4967300;28;20537;-85
2022/07/13 10:47:11;;;;;;;2.25;0.80;;;;;;;;;;4965785;28;20066;-85
2022/07/13 10:49:51;;;;;;;0.80;0.70;;;;;;;;;;4967852;28;20067;-85
2022/07/13 10:52:19;;;;;;;0.73;0.70;;;;;;;;;;4968188;28;20035;-83
2022/07/13 10:55:03;;;;;;;0.95;0.70;;;;;;;;;;4967956;28;20050;-88
2022/07/13 10:57:37;;;;;;;2.10;0.98;;;;;;;;;;4965127;28;20049;-83
2022/07/13 11:00:16;;;;;;;1.30;0.77;;;;;;;;;;4959422;28;20039;-86
2022/07/13 11:02:49;;;;;;;2.03;0.80;;;;;;;;;;4961994;28;20039;-85
2022/07/13 11:05:17;;;;;;;1.63;0.80;;;;;;;;;;4966814;28;20035;-86
2022/07/13 11:07:45;;;;;;;1.95;0.80;;;;;;;;;;4965349;28;20031;-85
2022/07/13 11:10:30;;;;;;;1.33;0.80;;;;;;;;;;4963656;28;20103;-84
2022/07/13 11:13:09;;;;;;;0.70;0.70;;;;;;;;;;4963278;29;20066;-84
2022/07/13 11:15:53;;;;;;;2.50;0.85;;;;;;;;;;4955771;29;20050;-85
2022/07/13 11:18:22;;;;;;;1.05;0.80;;;;;;;;;;4962313;28;20031;-85
2022/07/13 11:21:18;;;;;;;2.47;0.82;;;;;;;;;;4958489;28;20044;-85
2022/07/13 11:26:46;;;;;;;2.15;0.82;;;;;;;;;;4971935;28;20039;-85
2022/07/13 11:29:24;;;;;;;1.70;1.02;;;;;;;;;;4958201;29;20039;-85
2022/07/13 11:32:01;;;;;;;1.63;0.88;;;;;;;;;;4952563;29;20039;-85
2022/07/13 11:34:27;;;;;;;2.65;0.85;;;;;;;;;;4946195;29;20450;-85
2022/07/13 11:36:55;;;;;;;1.85;0.80;;;;;;;;;;4946670;29;20028;-84
2022/07/13 11:39:39;;;;;;;1.60;0.80;;;;;;;;;;4960415;29;20036;-84
2022/07/13 11:42:06;;;;;;;2.22;0.80;;;;;;;;;;4961229;29;20043;-84
2022/07/13 11:44:33;;;;;;;1.35;0.80;;;;;;;;;;4945600;29;20059;-85
2022/07/13 11:47:07;;;;;;;0.82;0.70;;;;;;;;;;4945068;29;20040;-85
2022/07/13 11:49:49;;;;;;;2.88;0.80;;;;;;;;;;4947107;29;20035;-85
2022/07/13 11:52:22;;;;;;;2.63;0.80;;;;;;;;;;4947337;29;20075;-85
2022/07/13 11:55:03;;;;;;;2.10;0.70;;;;;;;;;;4945003;29;20039;-85
2022/07/13 11:57:30;;;;;;;1.08;0.70;;;;;;;;;;4946909;29;20035;-85
2022/07/13 12:00:00;;;;;;;2.38;0.80;;;;;;;;;;4947660;29;20024;-85
2022/07/13 12:02:26;;;;;;;1.38;0.90;;;;;;;;;;4948185;29;20036;-85
2022/07/13 12:04:51;;;;;;;1.70;1.00;;;;;;;;;;4945863;29;20054;-85
2022/07/13 12:07:25;;;;;;;1.73;0.77;;;;;;;;;;4947863;29;20039;-85
2022/07/13 12:09:53;;;;;;;1.40;0.80;;;;;;;;;;4947740;29;20039;-85
2022/07/13 12:12:24;;;;;;;1.20;0.77;;;;;;;;;;4947032;29;20115;-85
2022/07/13 12:14:54;;;;;;;1.90;0.70;;;;;;;;;;4946094;29;20047;-86
2022/07/13 12:17:21;;;;;;;3.38;0.98;;;;;;;;;;4945111;29;20156;-87
2022/07/13 12:19:47;;;;;;;2.00;0.80;;;;;;;;;;4943700;29;20048;-87
2022/07/13 12:22:13;;;;;;;1.52;0.90;;;;;;;;;;4945020;29;20039;-87
2022/07/13 12:24:45;;;;;;;0.70;0.70;;;;;;;;;;4944022;29;20039;-86
2022/07/13 12:27:25;;;;;;;0.70;0.70;;;;;;;;;;4944812;29;20095;-85
2022/07/13 12:29:52;;;;;;;0.60;0.60;;;;;;;;;;4945747;29;20318;-85
2022/07/13 12:32:18;;;;;;;4.28;1.00;;;;;;;;;;4944858;29;20070;-86
2022/07/13 12:34:54;;;;;;;2.28;0.90;;;;;;;;;;4945026;29;20063;-86
2022/07/13 12:37:38;;;;;;;0.75;0.73;;;;;;;;;;4945364;29;20086;-87
2022/07/13 12:40:04;;;;;;;2.38;0.95;;;;;;;;;;4943342;29;20040;-87
2022/07/13 12:42:32;;;;;;;1.33;0.70;;;;;;;;;;4944639;29;20051;-87
2022/07/13 12:44:58;;;;;;;3.08;0.73;;;;;;;;;;4944349;29;20039;-87
2022/07/13 12:47:26;;;;;;;1.48;0.70;;;;;;;;;;4945034;29;20053;-87
2022/07/13 12:49:51;;;;;;;4.82;0.70;;;;;;;;;;4944282;29;20063;-87
2022/07/13 12:52:19;;;;;;;1.55;0.75;;;;;;;;;;4944248;29;20035;-86
2022/07/13 12:54:49;;;;;;;1.23;0.80;;;;;;;;;;4944577;29;20042;-86
2022/07/13 12:57:18;;;;;;;1.02;0.60;;;;;;;;;;4944128;29;20501;-86
2022/07/13 13:00:21;;;;;;;1.23;0.63;;;;;;;;;;4944055;29;20044;-86
2022/07/13 13:02:47;;;;;;;0.95;0.60;;;;;;;;;;4939264;29;20179;-86
2022/07/13 13:05:12;;;;;;;1.52;0.75;;;;;;;;;;4944323;29;20055;-87
2022/07/13 13:07:39;;;;;;;5.38;0.85;;;;;;;;;;4944336;29;20547;-86
2022/07/13 13:10:07;;;;;;;2.90;0.70;;;;;;;;;;4944080;29;20063;-86
2022/07/13 13:12:33;;;;;;;1.52;0.70;;;;;;;;;;4943810;29;20028;-87
2022/07/13 13:14:59;;;;;;;1.50;0.73;;;;;;;;;;4947522;29;20035;-83
2022/07/13 13:17:25;;;;;;;2.78;0.90;;;;;;;;;;4947160;29;20027;-83
2022/07/13 13:19:51;;;;;;;2.35;0.73;;;;;;;;;;4944907;28;20036;-83
2022/07/13 13:22:17;;;;;;;1.13;0.68;;;;;;;;;;4943279;29;20089;-82
2022/07/13 13:24:42;;;;;;;0.80;0.60;;;;;;;;;;4957210;28;20042;-84
2022/07/13 13:27:08;;;;;;;1.75;0.75;;;;;;;;;;4958608;28;20039;-81
2022/07/13 13:32:19;;;;;;;2.10;0.95;;;;;;;;;;4958277;28;20043;-82
2022/07/13 13:34:45;;;;;;;1.35;0.80;;;;;;;;;;4957898;28;20086;-82
2022/07/13 13:37:11;;;;;;;2.47;0.70;;;;;;;;;;4957966;28;20062;-82
2022/07/13 13:39:37;;;;;;;0.80;0.80;;;;;;;;;;4957385;28;20074;-81
2022/07/13 13:42:03;;;;;;;0.80;0.60;;;;;;;;;;4958716;29;20035;-81
2022/07/13 13:44:28;;;;;;;0.60;0.60;;;;;;;;;;4958062;28;20035;-82
2022/07/13 13:46:54;;;;;;;0.90;0.68;;;;;;;;;;4973456;28;20122;-86
2022/07/13 13:49:19;;;;;;;1.85;0.70;;;;;;;;;;4955955;29;20042;-84
2022/07/13 13:51:45;;;;;;;1.13;0.73;;;;;;;;;;4942638;28;20039;-83
2022/07/13 13:54:10;;;;;;;1.40;0.55;;;;;;;;;;4939279;29;20071;-83
2022/07/13 13:56:36;;;;;;;2.17;0.50;;;;;;;;;;4939891;29;20035;-83
2022/07/13 13:59:02;;;;;;;0.88;0.60;;;;;;;;;;4939932;29;20070;-83
2022/07/13 14:01:28;;;;;;;1.70;0.65;;;;;;;;;;4939113;29;20045;-83
2022/07/13 14:03:53;;;;;;;0.75;0.70;;;;;;;;;;4938233;29;20058;-83
2022/07/13 14:06:19;;;;;;;1.40;0.68;;;;;;;;;;4939214;29;20027;-83
2022/07/13 14:08:45;;;;;;;1.00;0.65;;;;;;;;;;4937849;29;20039;-82
2022/07/13 14:11:12;;;;;;;5.07;0.80;;;;;;;;;;4938785;29;20044;-82
2022/07/13 14:13:41;;;;;;;3.85;0.82;;;;;;;;;;4938185;29;20039;-83
2022/07/13 14:16:08;;;;;;;1.15;0.60;;;;;;;;;;4941011;29;20035;-83
2022/07/13 14:18:33;;;;;;;1.23;0.60;;;;;;;;;;4942591;29;20510;-84
2022/07/13 14:20:59;;;;;;;0.80;0.70;;;;;;;;;;4957462;29;20036;-83
2022/07/13 14:23:25;;;;;;;1.23;0.60;;;;;;;;;;4942168;29;20460;-83
2022/07/13 14:25:52;;;;;;;0.80;0.80;;;;;;;;;;4942941;29;20040;-83
2022/07/13 14:28:18;;;;;;;0.90;0.70;;;;;;;;;;4943572;29;20037;-83
2022/07/13 14:30:44;;;;;;;1.10;0.70;;;;;;;;;;4941924;29;20046;-83
2022/07/13 14:33:14;;;;;;;4.55;0.60;;;;;;;;;;4943176;29;20087;-83
2022/07/13 14:35:40;;;;;;;0.93;0.70;;;;;;;;;;4941834;29;20063;-83
2022/07/13 14:38:05;;;;;;;0.60;0.60;;;;;;;;;;4957773;29;20031;-83
2022/07/13 14:40:33;;;;;;;0.88;0.70;;;;;;;;;;4942663;29;20062;-87
2022/07/13 14:42:59;;;;;;;0.70;0.70;;;;;;;;;;4942771;29;20055;-83
2022/07/13 14:45:24;;;;;;;1.38;0.60;;;;;;;;;;4943970;29;20440;-84
2022/07/13 14:47:49;;;;;;;1.00;0.63;;;;;;;;;;4943999;29;20039;-84
2022/07/13 14:50:15;;;;;;;2.72;0.68;;;;;;;;;;4958544;29;20069;-83
2022/07/13 14:52:40;;;;;;;0.80;0.80;;;;;;;;;;4943834;29;20032;-83
2022/07/13 14:55:07;;;;;;;1.35;0.70;;;;;;;;;;4957689;29;20042;-85
2022/07/13 14:57:32;;;;;;;1.25;0.70;;;;;;;;;;4943441;29;20046;-84
2022/07/13 14:59:58;;;;;;;1.15;0.70;;;;;;;;;;4943831;29;20040;-84